createdAt,value
2024-02-27T00:02:16.803Z,17.20
2024-02-27T00:06:59.879Z,16.13
2024-02-27T00:11:37.678Z,19.60
2024-02-27T00:16:15.697Z,20.70
2024-02-27T00:20:53.723Z,15.93
2024-02-27T00:25:34.734Z,17.07
2024-02-27T00:30:13.806Z,17.23
2024-02-27T00:34:51.748Z,17.27
2024-02-27T00:39:30.906Z,18.20
2024-02-27T00:44:13.679Z,18.33
2024-02-27T00:48:51.801Z,19.80
2024-02-27T00:53:29.686Z,17.90
2024-02-27T00:58:07.797Z,19.47
2024-02-27T01:02:49.673Z,19.97
2024-02-27T01:07:27.733Z,19.17
2024-02-27T01:12:05.788Z,20.33
2024-02-27T01:16:43.663Z,21.17
2024-02-27T01:21:24.733Z,19.03
2024-02-27T01:26:02.689Z,21.17
2024-02-27T01:30:40.824Z,20.50
2024-02-27T01:35:13.872Z,23.63
2024-02-27T01:39:55.674Z,20.70
2024-02-27T01:44:33.662Z,20.93
2024-02-27T01:49:13.823Z,25.83
2024-02-27T01:53:51.666Z,21.07
2024-02-27T01:58:32.729Z,23.77
2024-02-27T02:03:11.812Z,20.87
2024-02-27T02:07:50.657Z,21.37
2024-02-27T02:12:28.714Z,21.03
2024-02-27T02:17:09.757Z,24.37
2024-02-27T02:21:50.701Z,26.13
2024-02-27T02:26:29.706Z,21.80
2024-02-27T02:31:07.718Z,25.23
2024-02-27T02:35:45.683Z,29.37
2024-02-27T02:40:27.699Z,28.93
2024-02-27T02:44:59.721Z,25.63
2024-02-27T02:49:40.895Z,30.87
2024-02-27T02:54:19.704Z,32.80
2024-02-27T02:59:00.669Z,27.23
2024-02-27T03:03:38.737Z,31.60
2024-02-27T03:08:16.681Z,29.00
2024-02-27T03:12:55.671Z,29.53
2024-02-27T03:17:36.714Z,29.13
2024-02-27T03:22:14.698Z,34.40
2024-02-27T03:26:52.654Z,29.23
2024-02-27T03:31:30.672Z,30.20
2024-02-27T03:36:11.787Z,35.00
2024-02-27T03:40:49.664Z,33.63
2024-02-27T03:45:27.720Z,32.70
2024-02-27T03:50:05.716Z,32.47
2024-02-27T03:54:46.682Z,29.80
2024-02-27T03:59:25.640Z,35.17
2024-02-27T04:04:03.640Z,38.40
2024-02-27T04:08:41.685Z,34.83
2024-02-27T04:13:22.656Z,36.27
2024-02-27T04:18:00.689Z,40.23
2024-02-27T04:22:38.675Z,38.43
2024-02-27T04:27:16.681Z,36.63
2024-02-27T04:32:00.642Z,44.03
2024-02-27T04:36:38.644Z,41.77
2024-02-27T04:41:16.665Z,54.13
2024-02-27T04:45:54.652Z,48.93
2024-02-27T04:50:35.637Z,45.37
2024-02-27T04:55:13.646Z,52.40
2024-02-27T04:59:52.662Z,47.47
2024-02-27T05:04:30.721Z,45.63
2024-02-27T05:09:11.701Z,58.97
2024-02-27T05:13:49.635Z,60.23
2024-02-27T05:18:27.814Z,54.20
2024-02-27T05:23:05.644Z,50.50
2024-02-27T05:27:46.636Z,47.63
2024-02-27T05:32:24.655Z,50.37
2024-02-27T05:37:02.647Z,51.73
2024-02-27T05:41:40.629Z,52.37
2024-02-27T05:46:21.679Z,44.57
2024-02-27T05:50:59.683Z,46.93
2024-02-27T05:55:37.629Z,43.67
2024-02-27T06:00:15.687Z,47.00
2024-02-27T06:04:56.737Z,43.00
2024-02-27T06:09:34.745Z,51.27
2024-02-27T06:14:12.620Z,47.33
2024-02-27T06:18:53.709Z,50.47
2024-02-27T06:23:34.630Z,44.30
2024-02-27T06:28:12.612Z,45.00
2024-02-27T06:32:50.740Z,48.87
2024-02-27T06:37:28.646Z,42.00
2024-02-27T06:42:09.706Z,47.73
2024-02-27T06:46:48.604Z,42.63
2024-02-27T06:51:26.654Z,48.03
2024-02-27T06:56:04.658Z,44.10
2024-02-27T07:00:45.854Z,43.27
2024-02-27T07:05:32.094Z,46.97
2024-02-27T07:10:13.639Z,45.37
2024-02-27T07:14:57.678Z,41.53
2024-02-27T07:19:38.681Z,48.23
2024-02-27T07:24:16.666Z,45.80
2024-02-27T07:28:54.646Z,44.67
2024-02-27T07:33:32.647Z,49.93
2024-02-27T07:38:13.650Z,41.47
2024-02-27T07:42:51.624Z,36.10
2024-02-27T07:47:29.590Z,33.13
2024-02-27T07:52:07.639Z,37.57
2024-02-27T07:56:48.609Z,37.83
2024-02-27T08:01:26.733Z,35.80
2024-02-27T08:06:04.620Z,35.40
2024-02-27T08:10:42.627Z,36.57
2024-02-27T08:15:23.629Z,33.87
2024-02-27T08:20:01.609Z,35.37
2024-02-27T08:24:39.737Z,35.53
2024-02-27T08:29:17.625Z,34.23
2024-02-27T08:33:58.776Z,37.57
2024-02-27T08:38:36.593Z,35.33
2024-02-27T08:43:14.614Z,31.73
2024-02-27T08:47:52.687Z,37.13
2024-02-27T08:52:33.600Z,34.07
2024-02-27T08:57:12.922Z,36.13
2024-02-27T09:01:51.591Z,36.27
2024-02-27T09:06:29.684Z,33.23
2024-02-27T09:11:10.692Z,29.60
2024-02-27T09:15:48.665Z,34.53
2024-02-27T09:20:21.595Z,28.80
2024-02-27T09:24:59.574Z,34.70
2024-02-27T09:29:41.591Z,30.80
2024-02-27T09:34:19.692Z,32.93
2024-02-27T09:38:58.591Z,32.27
2024-02-27T09:43:40.557Z,30.03
2024-02-27T09:48:23.682Z,28.37
2024-02-27T09:53:04.601Z,33.00
2024-02-27T09:57:45.706Z,28.40
2024-02-27T10:02:28.810Z,27.97
2024-02-27T10:07:09.631Z,27.60
2024-02-27T10:11:47.583Z,27.20
2024-02-27T10:16:25.583Z,28.77
2024-02-27T10:21:04.651Z,26.10
2024-02-27T10:25:46.572Z,28.83
2024-02-27T10:30:25.591Z,31.73
2024-02-27T10:35:04.807Z,23.87
2024-02-27T10:39:43.630Z,26.60
2024-02-27T10:44:24.594Z,32.83
2024-02-27T10:49:02.618Z,24.73
2024-02-27T10:53:41.577Z,27.73
2024-02-27T10:58:20.578Z,25.10
2024-02-27T11:03:06.584Z,26.13
2024-02-27T11:07:46.631Z,25.63
2024-02-27T11:12:21.508Z,26.73
2024-02-27T11:16:56.614Z,26.27
2024-02-27T11:21:38.586Z,25.90
2024-02-27T11:26:17.642Z,25.33
2024-02-27T11:30:55.625Z,24.83
2024-02-27T11:35:35.554Z,23.77
2024-02-27T11:40:16.645Z,23.53
2024-02-27T11:45:19.604Z,25.53
2024-02-27T11:49:57.587Z,23.67
2024-02-27T11:54:49.619Z,25.87
2024-02-27T11:59:30.666Z,24.27
2024-02-27T12:04:08.844Z,28.23
2024-02-27T12:08:47.606Z,26.93
2024-02-27T12:13:28.323Z,26.17
2024-02-27T12:18:09.807Z,22.37
2024-02-27T12:22:48.599Z,28.20
2024-02-27T12:27:26.615Z,25.23
2024-02-27T12:32:04.599Z,27.63
2024-02-27T12:36:45.652Z,22.57
2024-02-27T12:41:24.572Z,23.03
2024-02-27T12:46:06.565Z,25.47
2024-02-27T12:50:44.581Z,24.23
2024-02-27T12:55:26.571Z,24.60
2024-02-27T13:00:04.660Z,22.93
2024-02-27T13:04:45.034Z,22.77
2024-02-27T13:09:27.723Z,24.77
2024-02-27T13:14:02.430Z,26.37
2024-02-27T13:18:34.969Z,21.60
2024-02-27T13:23:21.488Z,25.17
2024-02-27T13:28:03.563Z,25.27
2024-02-27T13:32:44.606Z,22.53
2024-02-27T13:37:22.559Z,23.90
2024-02-27T13:42:02.594Z,22.83
2024-02-27T13:46:40.564Z,23.20
2024-02-27T13:51:21.609Z,26.00
2024-02-27T13:56:08.671Z,24.30
2024-02-27T14:00:46.638Z,25.43
2024-02-27T14:05:25.538Z,22.73
2024-02-27T14:10:06.637Z,22.13
2024-02-27T14:14:38.379Z,27.07
2024-02-27T14:19:12.678Z,21.23
2024-02-27T14:23:50.593Z,21.83
2024-02-27T14:28:31.557Z,22.80
2024-02-27T14:33:10.736Z,24.50
2024-02-27T14:37:48.542Z,23.37
2024-02-27T14:42:27.621Z,25.87
2024-02-27T14:47:08.667Z,23.23
2024-02-27T14:51:47.701Z,19.00
2024-02-27T14:56:26.528Z,22.27
2024-02-27T15:01:08.026Z,21.63
2024-02-27T15:05:49.575Z,22.20
2024-02-27T15:10:27.534Z,23.00
2024-02-27T15:15:05.599Z,19.90
2024-02-27T15:19:45.739Z,24.40
2024-02-27T15:24:28.596Z,27.90
2024-02-27T15:29:06.545Z,20.00
2024-02-27T15:33:44.598Z,23.37
2024-02-27T15:38:24.549Z,25.43
2024-02-27T15:43:07.632Z,25.17
2024-02-27T15:47:45.612Z,26.13
2024-02-27T15:52:23.653Z,26.00
2024-02-27T15:57:02.569Z,26.90
2024-02-27T16:01:43.624Z,27.03
2024-02-27T16:06:23.650Z,26.13
2024-02-27T16:11:01.554Z,24.43
2024-02-27T16:15:39.580Z,29.73
2024-02-27T16:20:21.517Z,24.70
2024-02-27T16:24:59.592Z,25.40
2024-02-27T16:29:37.545Z,24.37
2024-02-27T16:34:15.611Z,27.67
2024-02-27T16:38:56.520Z,25.37
2024-02-27T16:43:34.518Z,24.80
2024-02-27T16:48:13.646Z,25.90
2024-02-27T16:52:51.516Z,28.67
2024-02-27T16:57:32.553Z,26.70
2024-02-27T17:02:10.536Z,24.30
2024-02-27T17:06:51.581Z,21.40
2024-02-27T17:11:29.627Z,23.67
2024-02-27T17:16:10.557Z,24.77
2024-02-27T17:20:48.480Z,24.23
2024-02-27T17:25:26.523Z,24.87
2024-02-27T17:30:05.595Z,23.70
2024-02-27T17:34:46.648Z,20.10
2024-02-27T17:39:25.538Z,28.20
2024-02-27T17:44:03.515Z,24.97
2024-02-27T17:48:41.603Z,23.43
2024-02-27T17:53:22.549Z,23.67
2024-02-27T17:58:00.499Z,31.30
2024-02-27T18:02:38.556Z,26.90
2024-02-27T18:07:16.586Z,26.60
2024-02-27T18:11:58.482Z,21.37
2024-02-27T18:16:36.520Z,27.43
2024-02-27T18:21:16.695Z,25.10
2024-02-27T18:25:54.471Z,28.03
2024-02-27T18:30:35.968Z,30.13
2024-02-27T18:35:16.616Z,27.50
2024-02-27T18:39:54.678Z,28.83
2024-02-27T18:44:34.487Z,28.27
2024-02-27T18:49:15.568Z,31.63
2024-02-27T18:53:57.568Z,26.20
2024-02-27T18:58:35.477Z,30.87
2024-02-27T19:03:13.495Z,25.63
2024-02-27T19:07:54.498Z,28.67
2024-02-27T19:12:32.826Z,29.77
2024-02-27T19:17:12.495Z,27.97
2024-02-27T19:21:51.527Z,27.80
2024-02-27T19:26:32.492Z,42.53
2024-02-27T19:31:10.456Z,47.70
2024-02-27T19:35:43.488Z,32.43
2024-02-27T19:40:22.483Z,26.33
2024-02-27T19:45:04.475Z,29.07
2024-02-27T19:49:42.554Z,36.90
2024-02-27T19:54:20.523Z,36.80
2024-02-27T19:58:58.454Z,31.47
2024-02-27T20:03:39.517Z,28.20
2024-02-27T20:08:17.470Z,30.67
2024-02-27T20:12:55.593Z,33.07
2024-02-27T20:17:33.580Z,38.13
2024-02-27T20:22:15.430Z,34.33
2024-02-27T20:26:57.469Z,33.63
2024-02-27T20:31:36.380Z,36.43
2024-02-27T20:36:14.456Z,33.73
2024-02-27T20:40:56.460Z,33.63
2024-02-27T20:45:34.511Z,31.43
2024-02-27T20:50:16.476Z,30.63
2024-02-27T20:54:54.524Z,34.07
2024-02-27T20:59:36.485Z,32.47
2024-02-27T21:04:14.556Z,30.63
2024-02-27T21:08:52.471Z,34.07
2024-02-27T21:13:30.470Z,43.03
2024-02-27T21:18:12.885Z,45.97
2024-02-27T21:22:50.475Z,47.40
2024-02-27T21:27:28.554Z,43.67
2024-02-27T21:32:06.487Z,38.90
2024-02-27T21:36:47.587Z,45.23
2024-02-27T21:41:26.468Z,39.60
2024-02-27T21:46:06.490Z,34.87
2024-02-27T21:50:44.471Z,45.00
2024-02-27T21:55:26.503Z,36.90
2024-02-27T22:00:04.623Z,46.00
2024-02-27T22:04:42.459Z,40.67
2024-02-27T22:09:20.535Z,45.90
2024-02-27T22:14:01.470Z,61.00
2024-02-27T22:18:39.536Z,80.43
2024-02-27T22:23:17.459Z,52.43
2024-02-27T22:27:55.501Z,45.07
2024-02-27T22:32:36.533Z,56.07
2024-02-27T22:37:14.440Z,63.87
2024-02-27T22:41:52.473Z,49.90
2024-02-27T22:46:32.451Z,52.13
2024-02-27T22:51:13.458Z,47.47
2024-02-27T22:55:52.454Z,99.83
2024-02-27T23:00:32.743Z,89.27
2024-02-27T23:05:10.437Z,52.57
2024-02-27T23:09:51.547Z,64.40
2024-02-27T23:14:29.460Z,57.20
2024-02-27T23:19:07.471Z,52.23
2024-02-27T23:23:45.454Z,46.27
2024-02-27T23:28:27.429Z,48.90
2024-02-27T23:33:05.526Z,96.13
2024-02-27T23:37:37.436Z,63.13
2024-02-27T23:42:15.447Z,80.63
2024-02-27T23:46:56.440Z,62.60
2024-02-27T23:51:36.439Z,101.53
2024-02-27T23:56:14.409Z,59.07
